This is the latest recevied weather packets stored in our database for station/object DH0DM-13. If no packets are shown the sender has not sent any weather packets the latest 10 day(s).
| Time | Temp. | Humidity | Pressure | Rain* | Wind** | Luminosity | Snow |
|---|---|---|---|---|---|---|---|
| 1787576132 | 18.89° C | 54% | 996.4 hPa | 0 mm | 0 m/s | - | - |
| 1787575532 | 18.89° C | 58% | 996.5 hPa | 0 mm | 0 m/s | - | - |
| 1787574931 | 20° C | 56% | 996.3 hPa | 0 mm | 2.24 m/s, 280° | - | - |
| 1787574330 | 19.44° C | 55% | 996.5 hPa | 0 mm | 2.24 m/s, 307° | - | - |
| 1787573729 | 20° C | 52% | 996.6 hPa | 0 mm | 2.24 m/s, 61° | - | - |
| 1787573128 | 18.33° C | 62% | 996.7 hPa | 0 mm | 0 m/s | - | - |
| 1787572527 | 18.33° C | 58% | 996.7 hPa | 0 mm | 4.02 m/s, 264° | - | - |
| 1787571926 | 19.44° C | 59% | 996.6 hPa | 0 mm | 2.68 m/s, 234° | - | - |
| 1787571324 | 18.89° C | 58% | 996.6 hPa | 0 mm | 0.45 m/s, 120° | - | - |
| 1787570723 | 17.78° C | 62% | 996.6 hPa | 0 mm | 0.89 m/s, 58° | - | - |
| 1787570123 | 17.78° C | 61% | 996.7 hPa | 0 mm | 0 m/s | - | - |
| 1787569522 | 17.78° C | 60% | 996.6 hPa | 0 mm | 6.71 m/s, 302° | - | - |
| 1787568921 | 17.78° C | 60% | 996.8 hPa | 0 mm | 0 m/s | - | - |
| 1787568320 | 18.89° C | 57% | 996.8 hPa | 0 mm | 0 m/s | - | - |
| 1787567719 | 18.89° C | 55% | 996.7 hPa | 0 mm | 8.05 m/s, 235° | - | - |
| 1787567118 | 18.89° C | 62% | 996.8 hPa | 0 mm | 0.45 m/s, 312° | - | - |
| 1787566517 | 16.67° C | 67% | 996.9 hPa | 0 mm | 0 m/s | - | - |
| 1787565916 | 17.22° C | 65% | 997 hPa | 0 mm | 4.02 m/s, 279° | - | - |
| 1787565315 | 17.22° C | 65% | 996.9 hPa | 0 mm | 2.68 m/s, 282° | - | - |
| 1787564715 | 18.33° C | 63% | 996.8 hPa | 0 mm | 1.79 m/s, 305° | - | - |
| 1787564114 | 17.78° C | 63% | 996.8 hPa | 0 mm | 1.34 m/s, 228° | - | - |
| 1787563513 | 16.67° C | 68% | 997 hPa | 0 mm | 0 m/s | - | - |
| 1787562912 | 16.67° C | 69% | 996.9 hPa | 0 mm | 0.89 m/s, 196° | - | - |
| 1787562312 | 16.67° C | 67% | 997 hPa | 0 mm | 3.13 m/s, 201° | - | - |
| 1787561710 | 16.67° C | 66% | 996.9 hPa | 0 mm | 4.02 m/s, 240° | - | - |
* Rain since midnight (hover to see other rain measurements)
** Current wind speed in m/s (hover to see current wind gust speed)